Time;durP1;ratioP1;P1;durP2;ratioP2;P2;SDS_P1;SDS_P2;PMS_P1;PMS_P2;Temp;Humidity;BMP_temperature;BMP_pressure;BME280_temperature;BME280_humidity;BME280_pressure;Samples;Min_cycle;Max_cycle;Signal;HPM_P1;HPM_P2
2021/06/13 00:01:43;;;;;;;12.02;3.45;;;14.30;99.90;;;;;;3596951;39;20116;-66
2021/06/13 00:04:09;;;;;;;10.48;2.88;;;14.30;99.90;;;;;;3593962;39;20015;-66
2021/06/13 00:06:35;;;;;;;17.10;3.40;;;14.30;99.90;;;;;;3592301;39;20064;-66
2021/06/13 00:09:00;;;;;;;15.75;3.40;;;14.30;99.90;;;;;;3591193;39;20032;-66
2021/06/13 00:11:27;;;;;;;10.73;2.95;;;14.30;99.90;;;;;;3592727;39;20024;-66
2021/06/13 00:13:53;;;;;;;12.95;3.70;;;14.10;99.90;;;;;;3592699;39;20101;-66
2021/06/13 00:16:19;;;;;;;8.68;3.03;;;14.00;99.90;;;;;;3589969;39;20108;-66
2021/06/13 00:18:45;;;;;;;10.10;3.45;;;13.90;99.90;;;;;;3594336;39;20033;-65
2021/06/13 00:21:13;;;;;;;13.52;3.80;;;13.90;99.90;;;;;;3593533;39;20024;-66
2021/06/13 00:23:42;;;;;;;14.25;3.45;;;13.90;99.90;;;;;;3597454;39;20023;-66
2021/06/13 00:26:09;;;;;;;6.95;3.33;;;13.80;99.90;;;;;;3597952;39;20020;-66
2021/06/13 00:28:36;;;;;;;12.45;3.33;;;13.70;99.90;;;;;;3595984;39;20356;-66
2021/06/13 00:31:03;;;;;;;13.07;3.63;;;13.70;99.90;;;;;;3590418;39;20039;-66
2021/06/13 00:33:28;;;;;;;11.63;3.53;;;13.70;99.90;;;;;;3595638;39;20031;-66
2021/06/13 00:35:54;;;;;;;11.88;3.78;;;13.70;99.90;;;;;;3592756;39;20027;-66
2021/06/13 00:38:20;;;;;;;12.48;3.35;;;13.60;99.90;;;;;;3595287;39;20031;-66
2021/06/13 00:40:46;;;;;;;13.30;3.38;;;13.50;99.90;;;;;;3598184;39;20043;-66
2021/06/13 00:43:12;;;;;;;11.43;3.15;;;13.50;99.90;;;;;;3597460;39;20024;-67
2021/06/13 00:45:38;;;;;;;12.73;3.63;;;13.40;99.90;;;;;;3594803;39;20036;-66
2021/06/13 00:48:04;;;;;;;16.65;3.50;;;13.30;99.90;;;;;;3592536;39;20150;-66
2021/06/13 00:50:33;;;;;;;9.68;2.90;;;13.30;99.90;;;;;;3595020;39;20074;-66
2021/06/13 00:53:03;;;;;;;9.45;3.72;;;13.20;99.90;;;;;;3593264;39;20401;-66
2021/06/13 00:55:29;;;;;;;14.80;3.50;;;13.20;99.90;;;;;;3601151;39;20032;-66
2021/06/13 00:57:55;;;;;;;8.48;3.38;;;13.20;99.90;;;;;;3594190;39;20036;-66
2021/06/13 01:00:22;;;;;;;15.48;3.72;;;13.10;99.90;;;;;;3592627;39;20297;-66
2021/06/13 01:02:48;;;;;;;11.32;2.90;;;13.10;99.90;;;;;;3595827;39;20036;-66
2021/06/13 01:05:17;;;;;;;17.75;3.20;;;13.10;99.90;;;;;;3594308;39;20638;-66
2021/06/13 01:07:56;;;;;;;16.02;2.97;;;13.00;99.90;;;;;;3596054;39;20024;-66
2021/06/13 01:10:51;;;;;;;12.88;3.17;;;13.00;99.90;;;;;;3593355;39;20511;-65
2021/06/13 01:13:50;;;;;;;11.73;3.00;;;13.00;99.90;;;;;;3597869;39;20525;-65
2021/06/13 01:16:29;;;;;;;10.30;2.80;;;12.80;99.90;;;;;;3590212;39;20481;-66
2021/06/13 01:19:21;;;;;;;11.50;2.97;;;12.80;99.90;;;;;;3596037;39;20088;-65
2021/06/13 01:22:19;;;;;;;11.40;4.32;;;12.80;99.90;;;;;;3596317;39;20043;-65
2021/06/13 01:24:59;;;;;;;11.07;3.58;;;12.80;99.90;;;;;;3598020;39;20029;-66
2021/06/13 01:27:32;;;;;;;15.93;3.03;;;12.80;99.90;;;;;;3596254;39;20468;-66
2021/06/13 01:30:00;;;;;;;9.07;2.47;;;12.70;99.90;;;;;;3595315;39;20055;-66
2021/06/13 01:32:31;;;;;;;15.68;3.03;;;12.70;99.90;;;;;;3591849;39;20057;-66
2021/06/13 01:35:02;;;;;;;11.55;3.10;;;12.70;99.90;;;;;;3594681;39;20043;-66
2021/06/13 01:37:32;;;;;;;14.38;3.00;;;12.70;99.90;;;;;;3595836;39;20273;-66
2021/06/13 01:40:01;;;;;;;11.48;3.20;;;12.60;99.90;;;;;;3590598;39;20040;-66
2021/06/13 01:42:30;;;;;;;10.55;3.15;;;12.50;99.90;;;;;;3592819;39;20717;-66
2021/06/13 01:44:59;;;;;;;9.40;2.70;;;12.50;99.90;;;;;;3594697;39;20333;-67
2021/06/13 01:47:30;;;;;;;16.25;4.45;;;12.50;99.90;;;;;;3594134;39;20125;-65
2021/06/13 01:49:59;;;;;;;12.68;3.58;;;12.50;99.90;;;;;;3595399;39;20024;-65
2021/06/13 01:52:28;;;;;;;11.18;2.72;;;12.40;99.90;;;;;;3593485;39;20052;-66
2021/06/13 01:54:55;;;;;;;17.85;4.35;;;12.30;99.90;;;;;;3594458;39;20042;-66
2021/06/13 01:57:24;;;;;;;10.10;3.03;;;12.30;99.90;;;;;;3591647;39;20380;-66
2021/06/13 02:00:04;;;;;;;8.60;2.80;;;12.30;99.90;;;;;;3592919;39;20109;-66
2021/06/13 02:02:35;;;;;;;11.70;3.38;;;12.20;99.90;;;;;;3594891;39;20036;-67
2021/06/13 02:05:06;;;;;;;11.88;3.03;;;12.10;99.90;;;;;;3591318;39;20078;-65
2021/06/13 02:07:38;;;;;;;11.23;3.25;;;12.10;99.90;;;;;;3595325;39;20116;-66
2021/06/13 02:10:08;;;;;;;9.52;3.28;;;12.10;99.90;;;;;;3593616;39;20036;-66
2021/06/13 02:12:40;;;;;;;9.80;3.38;;;12.10;99.90;;;;;;3595982;39;20327;-64
2021/06/13 02:15:10;;;;;;;11.52;3.15;;;12.10;99.90;;;;;;3597882;39;20035;-65
2021/06/13 02:17:42;;;;;;;14.52;3.25;;;12.00;99.90;;;;;;3596159;39;20088;-65
2021/06/13 02:20:11;;;;;;;13.55;3.40;;;12.10;99.90;;;;;;3596750;39;20051;-66
2021/06/13 02:22:38;;;;;;;11.82;3.53;;;13.10;99.90;;;;;;3597361;39;20148;-65
2021/06/13 02:25:05;;;;;;;14.02;3.53;;;12.00;99.90;;;;;;3596515;39;20062;-65
2021/06/13 02:27:34;;;;;;;14.52;3.60;;;11.90;99.90;;;;;;3597069;39;20036;-66
2021/06/13 02:30:02;;;;;;;10.95;3.58;;;;;;;;;;3593733;39;20105;-66
2021/06/13 02:32:33;;;;;;;12.07;4.65;;;11.90;99.90;;;;;;3596210;39;20571;-66
2021/06/13 02:35:01;;;;;;;10.85;3.63;;;11.30;99.90;;;;;;3592836;39;20039;-66
2021/06/13 02:37:37;;;;;;;18.60;4.05;;;;;;;;;;3593242;39;20068;-66
2021/06/13 02:40:04;;;;;;;11.52;4.00;;;;;;;;;;3594337;39;20036;-66
2021/06/13 02:42:35;;;;;;;12.88;3.40;;;;;;;;;;3598120;39;20604;-66
2021/06/13 02:45:12;;;;;;;20.42;3.85;;;11.90;99.90;;;;;;3594237;39;20064;-66
2021/06/13 02:47:40;;;;;;;11.40;3.47;;;;;;;;;;3598711;39;20043;-66
2021/06/13 02:50:09;;;;;;;9.02;3.25;;;12.30;99.90;;;;;;3592055;39;20172;-65
2021/06/13 02:52:40;;;;;;;16.70;4.97;;;;;;;;;;3593809;39;20044;-66
2021/06/13 02:55:07;;;;;;;11.27;3.17;;;;;;;;;;3594743;39;20077;-66
2021/06/13 02:57:44;;;;;;;12.48;3.20;;;;;;;;;;3589773;39;20060;-66
2021/06/13 03:00:11;;;;;;;12.20;3.60;;;;;;;;;;3596005;39;20043;-65
2021/06/13 03:02:46;;;;;;;17.38;3.83;;;;;;;;;;3595424;39;20064;-66
2021/06/13 03:05:13;;;;;;;14.85;3.95;;;11.40;99.90;;;;;;3590886;39;20028;-64
2021/06/13 03:07:41;;;;;;;19.83;5.13;;;11.90;99.90;;;;;;3592590;39;20031;-66
2021/06/13 03:10:09;;;;;;;15.43;3.88;;;11.80;99.90;;;;;;3594658;39;20784;-66
2021/06/13 03:12:36;;;;;;;19.42;3.50;;;11.80;99.90;;;;;;3597507;39;20027;-66
2021/06/13 03:15:05;;;;;;;19.20;4.70;;;;;;;;;;3597207;39;20031;-66
2021/06/13 03:17:35;;;;;;;18.90;3.75;;;11.80;99.90;;;;;;3595766;39;20048;-66
2021/06/13 03:20:01;;;;;;;13.25;3.20;;;;;;;;;;3593593;39;20032;-66
2021/06/13 03:22:33;;;;;;;15.38;4.18;;;11.80;99.90;;;;;;3590810;39;20028;-66
2021/06/13 03:25:01;;;;;;;9.00;3.05;;;;;;;;;;3593051;39;20032;-66
2021/06/13 03:27:28;;;;;;;10.55;3.22;;;;;;;;;;3595096;39;20036;-66
2021/06/13 03:29:56;;;;;;;13.75;3.33;;;;;;;;;;3591472;39;20371;-66
2021/06/13 03:32:24;;;;;;;10.15;3.13;;;11.70;99.90;;;;;;3597239;39;20038;-66
2021/06/13 03:34:50;;;;;;;17.27;5.97;;;;;;;;;;3595534;39;20042;-66
2021/06/13 03:37:17;;;;;;;11.38;3.15;;;;;;;;;;3596893;39;20436;-66
2021/06/13 03:39:44;;;;;;;17.02;3.85;;;12.30;99.90;;;;;;3588589;39;20750;-66
2021/06/13 03:42:11;;;;;;;14.98;3.20;;;11.70;99.90;;;;;;3591173;39;20043;-65
2021/06/13 03:44:38;;;;;;;10.68;2.97;;;;;;;;;;3596324;39;20892;-65
2021/06/13 03:47:05;;;;;;;10.75;3.80;;;12.00;99.90;;;;;;3596197;39;20042;-66
2021/06/13 03:49:32;;;;;;;13.73;3.40;;;12.10;99.90;;;;;;3595501;39;20527;-66
2021/06/13 03:51:58;;;;;;;14.23;2.95;;;;;;;;;;3593476;39;20619;-66
2021/06/13 03:54:24;;;;;;;12.63;3.60;;;;;;;;;;3592735;39;20032;-66
2021/06/13 03:56:53;;;;;;;10.80;2.92;;;12.10;99.90;;;;;;3599500;39;20526;-66
2021/06/13 03:59:25;;;;;;;14.65;2.75;;;12.30;99.90;;;;;;3592412;39;20042;-66
2021/06/13 04:01:52;;;;;;;13.15;3.25;;;12.40;99.90;;;;;;3595309;39;20024;-66
2021/06/13 04:04:19;;;;;;;11.32;3.33;;;;;;;;;;3594092;39;20121;-66
2021/06/13 04:06:48;;;;;;;15.35;3.10;;;;;;;;;;3597138;39;20020;-66
2021/06/13 04:09:17;;;;;;;10.02;2.97;;;12.30;99.90;;;;;;3594599;39;20032;-66
2021/06/13 04:11:45;;;;;;;12.93;3.67;;;12.20;99.90;;;;;;3595578;39;20032;-66
2021/06/13 04:14:11;;;;;;;10.82;3.25;;;;;;;;;;3591643;39;20091;-65
2021/06/13 04:16:38;;;;;;;10.52;3.22;;;;;;;;;;3595243;39;20015;-66
2021/06/13 04:19:04;;;;;;;13.23;3.58;;;;;;;;;;3593920;39;20028;-66
2021/06/13 04:21:30;;;;;;;11.38;3.70;;;;;;;;;;3592167;39;20500;-66
2021/06/13 04:23:59;;;;;;;12.18;3.63;;;12.30;99.90;;;;;;3588465;39;20056;-65
2021/06/13 04:26:26;;;;;;;12.43;3.70;;;12.40;99.90;;;;;;3592375;39;20036;-67
2021/06/13 04:28:52;;;;;;;15.90;3.28;;;;;;;;;;3595063;39;20047;-66
2021/06/13 04:31:19;;;;;;;14.43;3.28;;;12.70;99.90;;;;;;3590939;39;20031;-66
2021/06/13 04:33:47;;;;;;;12.48;3.83;;;12.90;99.90;;;;;;3595874;39;20583;-65
2021/06/13 04:36:16;;;;;;;14.05;4.53;;;13.00;99.90;;;;;;3593043;39;20409;-66
2021/06/13 04:38:42;;;;;;;13.57;3.38;;;;;;;;;;3590729;39;20102;-65
2021/06/13 04:41:10;;;;;;;14.75;3.60;;;13.10;99.90;;;;;;3601208;39;20435;-66
2021/06/13 04:43:37;;;;;;;16.30;3.30;;;13.20;99.90;;;;;;3596051;39;20027;-66
2021/06/13 04:46:04;;;;;;;10.75;3.35;;;13.30;99.90;;;;;;3598439;39;20042;-66
2021/06/13 04:48:30;;;;;;;16.52;5.55;;;;;;;;;;3597952;39;20355;-66
2021/06/13 04:51:01;;;;;;;12.25;3.10;;;13.30;99.90;;;;;;3597959;39;20039;-66
2021/06/13 04:53:48;;;;;;;14.43;2.83;;;13.50;99.90;;;;;;3592919;39;20317;-66
2021/06/13 04:56:40;;;;;;;13.90;3.15;;;13.70;99.90;;;;;;3597079;39;20035;-66
2021/06/13 04:59:06;;;;;;;13.68;4.00;;;;;;;;;;3594801;39;20079;-66
2021/06/13 05:01:33;;;;;;;24.20;3.80;;;;;;;;;;3593940;39;20044;-65
2021/06/13 05:03:59;;;;;;;12.93;3.10;;;;;;;;;;3599544;39;20636;-65
2021/06/13 05:06:25;;;;;;;15.18;3.65;;;13.40;99.90;;;;;;3597913;39;20024;-67
2021/06/13 05:08:52;;;;;;;13.45;3.63;;;13.30;99.90;;;;;;3596334;39;20108;-65
2021/06/13 05:11:18;;;;;;;11.48;3.10;;;13.30;99.90;;;;;;3594109;39;20095;-65
2021/06/13 05:13:44;;;;;;;15.88;3.65;;;13.60;99.90;;;;;;3600229;39;20023;-65
2021/06/13 05:16:10;;;;;;;11.52;2.90;;;;;;;;;;3597874;39;20052;-65
2021/06/13 05:18:36;;;;;;;12.80;3.40;;;13.50;99.90;;;;;;3595513;39;20046;-65
2021/06/13 05:21:02;;;;;;;9.55;3.05;;;13.50;99.90;;;;;;3595575;39;20024;-65
2021/06/13 05:23:27;;;;;;;16.13;5.50;;;12.80;99.90;;;;;;3598993;39;20039;-65
2021/06/13 05:25:55;;;;;;;13.45;3.30;;;14.00;99.90;;;;;;3595487;39;20031;-65
2021/06/13 05:28:22;;;;;;;10.40;3.40;;;13.70;99.90;;;;;;3593379;39;20055;-65
2021/06/13 05:30:48;;;;;;;20.23;4.03;;;;;;;;;;3592901;39;20028;-65
2021/06/13 05:33:14;;;;;;;19.55;3.35;;;12.90;99.90;;;;;;3595898;39;20027;-65
2021/06/13 05:35:41;;;;;;;10.68;3.55;;;13.70;99.90;;;;;;3593062;39;20044;-65
2021/06/13 05:38:07;;;;;;;7.57;2.75;;;13.50;99.90;;;;;;3596092;39;20042;-66
2021/06/13 05:40:34;;;;;;;11.27;2.88;;;13.80;99.90;;;;;;3594148;39;20035;-65
2021/06/13 05:43:00;;;;;;;18.80;3.60;;;13.90;99.90;;;;;;3595967;39;20039;-66
2021/06/13 05:45:29;;;;;;;24.35;5.97;;;13.80;99.90;;;;;;3590298;39;20029;-66
2021/06/13 05:47:55;;;;;;;17.10;5.20;;;13.20;99.90;;;;;;3592361;39;20694;-65
2021/06/13 05:50:22;;;;;;;33.25;12.15;;;13.40;99.90;;;;;;3595222;39;20050;-65
2021/06/13 05:52:48;;;;;;;14.38;3.60;;;13.90;99.90;;;;;;3593308;39;20024;-65
2021/06/13 05:55:14;;;;;;;14.27;3.63;;;13.40;99.90;;;;;;3592331;39;20653;-65
2021/06/13 05:57:41;;;;;;;15.60;3.38;;;14.90;99.90;;;;;;3593670;39;20058;-66
2021/06/13 06:00:11;;;;;;;11.57;3.20;;;15.00;99.90;;;;;;3595109;39;20128;-66
2021/06/13 06:02:42;;;;;;;9.88;3.53;;;14.40;99.90;;;;;;3592769;39;20044;-66
2021/06/13 06:05:10;;;;;;;18.13;6.75;;;14.60;99.90;;;;;;3594851;39;20377;-65
2021/06/13 06:07:36;;;;;;;17.05;4.60;;;14.10;99.90;;;;;;3597599;39;20035;-65
2021/06/13 06:10:02;;;;;;;9.65;3.30;;;;;;;;;;3598329;39;20037;-66
2021/06/13 06:12:27;;;;;;;13.55;3.80;;;15.00;99.90;;;;;;3598402;39;20042;-66
2021/06/13 06:14:53;;;;;;;15.77;3.75;;;15.50;99.90;;;;;;3594631;39;20095;-66
2021/06/13 06:17:19;;;;;;;13.07;3.40;;;14.80;99.90;;;;;;3597749;39;20329;-66
2021/06/13 06:19:45;;;;;;;15.25;3.58;;;15.20;99.90;;;;;;3599595;39;20028;-65
2021/06/13 06:22:11;;;;;;;11.30;2.95;;;15.10;99.90;;;;;;3598613;39;20036;-66
2021/06/13 06:24:37;;;;;;;9.82;2.95;;;;;;;;;;3594630;39;20031;-66
2021/06/13 06:27:04;;;;;;;17.17;3.33;;;14.50;99.90;;;;;;3597083;39;20070;-66
2021/06/13 06:29:31;;;;;;;10.65;2.67;;;14.90;99.90;;;;;;3593674;39;20070;-66
2021/06/13 06:31:57;;;;;;;9.48;3.10;;;15.80;99.90;;;;;;3593929;39;20780;-66
2021/06/13 06:34:23;;;;;;;12.70;2.78;;;15.40;99.90;;;;;;3597088;39;20433;-66
2021/06/13 06:36:49;;;;;;;14.02;3.40;;;15.30;99.90;;;;;;3595114;39;20024;-65
2021/06/13 06:39:15;;;;;;;14.30;2.78;;;16.10;99.90;;;;;;3591758;39;20082;-66
2021/06/13 06:41:42;;;;;;;9.82;3.38;;;;;;;;;;3594394;39;20036;-66
2021/06/13 06:44:08;;;;;;;11.32;2.92;;;15.50;99.90;;;;;;3592020;39;20134;-66
2021/06/13 06:46:35;;;;;;;10.70;2.60;;;15.70;99.90;;;;;;3593487;39;20024;-66
2021/06/13 06:49:02;;;;;;;12.75;3.00;;;15.60;99.90;;;;;;3598117;39;20878;-65
2021/06/13 06:51:28;;;;;;;6.95;2.55;;;15.10;99.90;;;;;;3595664;39;20063;-66
2021/06/13 06:53:57;;;;;;;14.13;3.55;;;15.80;99.90;;;;;;3592776;39;20313;-67
2021/06/13 06:56:23;;;;;;;13.20;2.90;;;;;;;;;;3598710;39;20034;-67
2021/06/13 06:58:49;;;;;;;10.57;2.60;;;15.50;99.90;;;;;;3595906;39;20020;-67
2021/06/13 07:01:15;;;;;;;15.82;2.88;;;;;;;;;;3592494;39;20035;-66
2021/06/13 07:03:41;;;;;;;17.13;5.75;;;;;;;;;;3596975;39;20128;-68
2021/06/13 07:06:07;;;;;;;11.45;3.85;;;;;;;;;;3594259;39;20021;-66
2021/06/13 07:08:33;;;;;;;7.80;2.58;;;;;;;;;;3593658;39;20305;-66
2021/06/13 07:10:59;;;;;;;9.60;2.60;;;;;;;;;;3598075;39;20028;-66
2021/06/13 07:13:25;;;;;;;14.18;3.08;;;;;;;;;;3593762;39;20031;-66
2021/06/13 07:15:52;;;;;;;7.07;2.30;;;;;;;;;;3595165;39;20332;-66
2021/06/13 07:18:18;;;;;;;11.90;2.38;;;;;;;;;;3595525;39;20026;-66
2021/06/13 07:20:44;;;;;;;7.47;2.67;;;14.80;99.90;;;;;;3597147;39;20032;-66
2021/06/13 07:23:10;;;;;;;9.23;2.40;;;;;;;;;;3595070;39;20370;-66
2021/06/13 07:25:36;;;;;;;10.73;2.20;;;15.50;99.80;;;;;;3594304;39;20031;-66
2021/06/13 07:28:04;;;;;;;8.27;2.45;;;15.30;99.90;;;;;;3594717;39;20036;-66
2021/06/13 07:30:30;;;;;;;12.80;2.50;;;;;;;;;;3591988;39;20084;-66
2021/06/13 07:32:56;;;;;;;8.65;2.53;;;;;;;;;;3594942;39;20095;-66
2021/06/13 07:35:23;;;;;;;13.50;2.42;;;;;;;;;;3590488;39;20520;-66
2021/06/13 07:37:49;;;;;;;12.65;2.45;;;16.00;99.30;;;;;;3592952;39;20030;-66
2021/06/13 07:40:18;;;;;;;15.23;2.42;;;16.00;98.60;;;;;;3594304;39;20838;-66
2021/06/13 07:42:44;;;;;;;7.05;2.22;;;;;;;;;;3597153;39;20032;-66
2021/06/13 07:45:12;;;;;;;11.40;2.50;;;16.00;99.40;;;;;;3597938;39;20020;-66
2021/06/13 07:47:38;;;;;;;12.48;2.60;;;16.40;99.90;;;;;;3593723;39;20336;-66
2021/06/13 07:50:06;;;;;;;11.40;2.53;;;16.10;99.00;;;;;;3595223;39;20038;-66
2021/06/13 07:52:32;;;;;;;12.18;2.53;;;16.40;98.50;;;;;;3590325;39;20045;-66
2021/06/13 07:54:58;;;;;;;9.57;2.50;;;;;;;;;;3593310;39;20581;-66
2021/06/13 07:57:25;;;;;;;8.23;2.30;;;;;;;;;;3594544;39;20031;-66
2021/06/13 07:59:51;;;;;;;13.15;4.70;;;;;;;;;;3594049;39;20031;-68
2021/06/13 08:02:17;;;;;;;8.80;2.47;;;17.30;99.90;;;;;;3590766;39;20017;-66
2021/06/13 08:04:48;;;;;;;10.77;2.92;;;;;;;;;;3592070;39;20023;-66
2021/06/13 08:07:15;;;;;;;8.90;2.35;;;;;;;;;;3589927;39;20031;-66
2021/06/13 08:09:41;;;;;;;15.73;3.17;;;;;;;;;;3596507;39;20061;-66
2021/06/13 08:12:07;;;;;;;17.23;2.83;;;;;;;;;;3592738;39;20024;-66
2021/06/13 08:14:33;;;;;;;13.40;3.20;;;;;;;;;;3594204;39;20055;-67
2021/06/13 08:16:59;;;;;;;18.83;3.50;;;;;;;;;;3594119;39;20032;-66
2021/06/13 08:19:25;;;;;;;14.77;2.85;;;;;;;;;;3595001;39;20021;-66
2021/06/13 08:21:52;;;;;;;26.30;7.03;;;;;;;;;;3598406;39;20021;-66
2021/06/13 08:24:18;;;;;;;25.40;9.73;;;;;;;;;;3595243;39;20044;-66
2021/06/13 08:26:44;;;;;;;12.55;4.03;;;;;;;;;;3597782;39;20020;-66
2021/06/13 08:29:10;;;;;;;15.02;4.53;;;;;;;;;;3592856;39;20032;-65
2021/06/13 08:31:36;;;;;;;9.63;2.40;;;;;;;;;;3595006;39;20039;-66
2021/06/13 08:34:03;;;;;;;17.35;2.70;;;;;;;;;;3595184;39;20040;-66
2021/06/13 08:36:29;;;;;;;14.50;3.00;;;17.20;98.10;;;;;;3599879;39;20038;-65
2021/06/13 08:38:55;;;;;;;9.90;3.22;;;17.10;98.20;;;;;;3595884;39;20039;-66
2021/06/13 08:41:22;;;;;;;9.30;2.90;;;17.20;98.10;;;;;;3592593;39;20433;-66
2021/06/13 08:43:49;;;;;;;7.38;2.78;;;;;;;;;;3591505;39;20047;-66
2021/06/13 08:46:15;;;;;;;8.75;2.75;;;;;;;;;;3598285;39;20028;-66
2021/06/13 08:48:45;;;;;;;9.10;2.88;;;;;;;;;;3596713;39;20393;-66
2021/06/13 08:51:12;;;;;;;7.80;2.22;;;;;;;;;;3595307;39;20136;-66
2021/06/13 08:53:43;;;;;;;13.63;2.40;;;;;;;;;;3593525;39;20128;-66
2021/06/13 08:56:10;;;;;;;6.90;2.53;;;;;;;;;;3595438;39;20036;-66
2021/06/13 08:58:36;;;;;;;11.88;2.75;;;;;;;;;;3595805;39;20064;-66
2021/06/13 09:01:03;;;;;;;10.52;2.30;;;;;;;;;;3594255;39;20024;-66
2021/06/13 09:03:29;;;;;;;14.80;2.65;;;;;;;;;;3594652;39;20313;-66
2021/06/13 09:05:55;;;;;;;10.80;2.70;;;;;;;;;;3595541;39;20104;-65
2021/06/13 09:08:21;;;;;;;13.80;3.13;;;;;;;;;;3597513;39;20032;-66
2021/06/13 09:10:47;;;;;;;16.92;3.28;;;;;;;;;;3593172;39;20039;-66
2021/06/13 09:13:16;;;;;;;10.65;3.15;;;;;;;;;;3593489;39;20818;-65
2021/06/13 09:15:44;;;;;;;12.35;2.90;;;;;;;;;;3594348;39;20453;-66
2021/06/13 09:18:30;;;;;;;12.10;2.80;;;;;;;;;;3596499;39;20305;-66
2021/06/13 09:20:56;;;;;;;13.68;3.00;;;;;;;;;;3589019;39;20036;-66
2021/06/13 09:23:23;;;;;;;17.25;3.67;;;;;;;;;;3593941;39;20031;-67
2021/06/13 09:25:56;;;;;;;16.40;3.70;;;;;;;;;;3594166;39;20031;-67
2021/06/13 09:28:22;;;;;;;10.82;3.13;;;;;;;;;;3592223;39;20044;-67
2021/06/13 09:30:51;;;;;;;16.35;4.47;;;;;;;;;;3594870;39;20032;-66
2021/06/13 09:33:26;;;;;;;11.77;3.30;;;;;;;;;;3597787;39;20086;-67
2021/06/13 09:35:53;;;;;;;24.13;5.20;;;;;;;;;;3592530;39;20314;-66
2021/06/13 09:38:43;;;;;;;10.82;3.42;;;18.00;96.90;;;;;;3598198;39;20061;-67
2021/06/13 09:41:14;;;;;;;22.77;3.88;;;18.30;97.00;;;;;;3593558;39;20028;-66
2021/06/13 09:43:44;;;;;;;11.82;3.15;;;18.60;96.40;;;;;;3591805;39;20031;-66
2021/06/13 09:46:32;;;;;;;13.40;2.75;;;18.90;95.80;;;;;;3599167;39;20020;-66
2021/06/13 09:49:08;;;;;;;16.98;3.65;;;18.90;94.90;;;;;;3596163;39;20031;-66
2021/06/13 09:51:40;;;;;;;15.98;3.35;;;18.60;95.00;;;;;;3598781;39;20035;-66
2021/06/13 09:54:08;;;;;;;12.02;3.40;;;18.10;95.90;;;;;;3595547;39;20725;-66
2021/06/13 09:56:35;;;;;;;13.65;3.70;;;17.70;96.70;;;;;;3596066;39;20121;-66
2021/06/13 09:59:06;;;;;;;10.73;3.63;;;17.30;96.90;;;;;;3592770;39;20027;-66
2021/06/13 10:01:41;;;;;;;19.67;3.72;;;17.20;97.50;;;;;;3594508;39;20309;-64
2021/06/13 10:04:24;;;;;;;28.77;10.68;;;16.70;98.50;;;;;;3591686;39;20509;-66
2021/06/13 10:06:52;;;;;;;25.63;11.15;;;16.60;99.20;;;;;;3593680;39;20066;-65
2021/06/13 10:09:19;;;;;;;15.57;3.75;;;17.40;99.70;;;;;;3600244;39;20239;-66
2021/06/13 10:11:48;;;;;;;15.82;3.72;;;16.70;98.30;;;;;;3594634;39;20016;-66
2021/06/13 10:14:17;;;;;;;14.32;4.00;;;17.50;99.10;;;;;;3595203;39;20116;-66
2021/06/13 10:16:48;;;;;;;16.95;3.72;;;16.80;98.70;;;;;;3595642;39;20028;-67
2021/06/13 10:19:24;;;;;;;13.48;3.30;;;16.60;98.20;;;;;;3594490;39;20036;-66
2021/06/13 10:21:53;;;;;;;13.35;3.35;;;16.30;99.90;;;;;;3594260;39;20878;-66
2021/06/13 10:24:23;;;;;;;19.05;3.95;;;16.30;99.70;;;;;;3597065;39;20033;-66
2021/06/13 10:26:51;;;;;;;14.30;3.78;;;16.20;99.90;;;;;;3593883;39;20032;-67
2021/06/13 10:29:18;;;;;;;14.00;3.45;;;16.20;99.90;;;;;;3598792;39;20032;-69
2021/06/13 10:31:48;;;;;;;11.43;4.05;;;16.50;99.90;;;;;;3595728;39;20028;-66
2021/06/13 10:34:16;;;;;;;10.20;3.72;;;17.00;99.90;;;;;;3594738;39;20055;-67
2021/06/13 10:36:42;;;;;;;14.13;3.65;;;;;;;;;;3595693;39;20028;-67
2021/06/13 10:39:10;;;;;;;10.38;3.53;;;18.40;99.90;;;;;;3594721;39;20028;-68
2021/06/13 10:41:37;;;;;;;13.77;3.67;;;18.50;97.00;;;;;;3597874;39;20051;-67
2021/06/13 10:44:07;;;;;;;10.70;3.70;;;19.20;96.10;;;;;;3590869;39;20034;-66
2021/06/13 10:46:36;;;;;;;12.75;3.47;;;19.20;94.50;;;;;;3596820;39;20031;-67
2021/06/13 10:49:04;;;;;;;12.52;3.58;;;19.20;93.60;;;;;;3594857;39;20039;-67
2021/06/13 10:51:46;;;;;;;12.95;3.72;;;19.50;94.90;;;;;;3591073;39;20035;-67
2021/06/13 10:54:30;;;;;;;14.25;3.38;;;20.20;93.90;;;;;;3591769;39;20103;-66
2021/06/13 10:57:05;;;;;;;10.05;3.38;;;;;;;;;;3592809;39;20052;-67
2021/06/13 10:59:40;;;;;;;8.95;3.17;;;;;;;;;;3590709;39;20044;-67
2021/06/13 11:02:10;;;;;;;;;;;;;;;;;;3597166;39;20032;-67
2021/06/13 11:04:47;;;;;;;11.35;3.05;;;;;;;;;;3594724;39;19931;-67
2021/06/13 11:07:36;;;;;;;11.65;3.25;;;;;;;;;;3592779;39;20478;-67
2021/06/13 11:10:14;;;;;;;19.25;7.43;;;18.10;94.20;;;;;;3590767;39;20406;-67
2021/06/13 11:12:55;;;;;;;57.80;24.02;;;17.80;94.00;;;;;;3592486;39;20542;-67
2021/06/13 11:15:41;;;;;;;14.15;5.68;;;17.60;94.60;;;;;;3585605;39;20040;-67
2021/06/13 11:18:28;;;;;;;10.55;3.63;;;17.00;94.00;;;;;;3595641;39;20147;-67
2021/06/13 11:21:10;;;;;;;21.70;8.10;;;17.90;94.50;;;;;;3597000;39;20124;-67
2021/06/13 11:23:36;;;;;;;10.80;4.47;;;18.20;93.80;;;;;;3592007;39;20034;-67
2021/06/13 11:26:04;;;;;;;14.75;6.03;;;18.30;94.10;;;;;;3592979;39;20959;-68
2021/06/13 11:28:33;;;;;;;16.02;3.70;;;18.70;92.40;;;;;;3591212;39;20045;-67
2021/06/13 11:31:09;;;;;;;15.68;3.72;;;19.10;92.10;;;;;;3593603;39;20028;-67
2021/06/13 11:33:40;;;;;;;10.38;3.92;;;19.60;92.30;;;;;;3591520;39;20050;-67
2021/06/13 11:36:30;;;;;;;10.43;3.40;;;20.30;91.10;;;;;;3593719;39;20065;-67
2021/06/13 11:39:02;;;;;;;10.13;3.05;;;20.30;90.80;;;;;;3593678;39;20044;-67
2021/06/13 11:41:36;;;;;;;9.55;3.00;;;20.50;90.70;;;;;;3597114;39;20028;-67
2021/06/13 11:44:05;;;;;;;10.27;3.33;;;20.30;90.50;;;;;;3597478;39;20039;-67
2021/06/13 11:46:30;;;;;;;9.40;2.80;;;20.10;91.70;;;;;;3594839;39;20021;-67
2021/06/13 11:48:56;;;;;;;17.05;4.97;;;;;;;;;;3595397;39;20058;-67
2021/06/13 11:51:22;;;;;;;18.20;6.60;;;19.50;91.20;;;;;;3598889;39;20036;-67
2021/06/13 11:53:48;;;;;;;13.35;3.67;;;;;;;;;;3592718;39;20628;-67
2021/06/13 11:56:33;;;;;;;9.77;3.30;;;19.60;90.30;;;;;;3595778;39;20040;-68
2021/06/13 11:59:03;;;;;;;8.13;2.92;;;20.60;89.20;;;;;;3596971;39;20035;-67
2021/06/13 12:01:30;;;;;;;7.18;3.42;;;20.40;86.70;;;;;;3594059;39;20030;-67
2021/06/13 12:03:57;;;;;;;11.13;2.97;;;20.80;85.50;;;;;;3595381;39;20025;-68
2021/06/13 12:06:22;;;;;;;12.85;2.80;;;20.90;82.70;;;;;;3592378;39;20749;-67
2021/06/13 12:08:51;;;;;;;12.10;3.50;;;20.60;82.40;;;;;;3595629;39;20046;-69
2021/06/13 12:11:39;;;;;;;8.77;2.47;;;20.40;81.00;;;;;;3593247;39;20032;-69
2021/06/13 12:14:29;;;;;;;8.13;2.80;;;21.40;81.00;;;;;;3594053;39;20028;-69
2021/06/13 12:16:58;;;;;;;8.57;2.70;;;20.80;79.10;;;;;;3597093;39;20705;-69
2021/06/13 12:19:39;;;;;;;7.13;2.63;;;20.70;78.50;;;;;;3592590;39;20531;-69
2021/06/13 12:22:16;;;;;;;5.95;2.80;;;21.10;88.60;;;;;;3594537;39;20117;-67
2021/06/13 12:27:27;;;;;;;8.95;2.53;;;22.40;76.50;;;;;;3597253;39;20145;-68
2021/06/13 12:30:02;;;;;;;4.82;2.42;;;22.50;74.10;;;;;;3593928;39;20047;-67
2021/06/13 12:32:30;;;;;;;5.72;2.42;;;22.50;74.70;;;;;;3595457;39;20096;-70
2021/06/13 12:35:16;;;;;;;6.28;2.33;;;23.60;73.00;;;;;;3586817;39;20025;-70
2021/06/13 12:38:00;;;;;;;7.95;2.40;;;25.40;64.80;;;;;;3593782;39;20793;-69
2021/06/13 12:40:27;;;;;;;4.80;2.50;;;24.90;62.50;;;;;;3595697;39;20037;-68
2021/06/13 12:42:53;;;;;;;9.15;2.67;;;;;;;;;;3593574;39;20020;-67
2021/06/13 12:45:20;;;;;;;11.05;3.88;;;24.10;63.10;;;;;;3596381;39;20032;-68
2021/06/13 12:47:48;;;;;;;11.68;3.30;;;23.70;63.90;;;;;;3593230;39;20043;-68
2021/06/13 12:50:23;;;;;;;11.05;3.60;;;23.90;66.60;;;;;;3597532;39;20057;-68
2021/06/13 12:52:50;;;;;;;14.00;6.15;;;25.10;62.80;;;;;;3592616;39;20811;-68
2021/06/13 12:55:16;;;;;;;10.75;2.80;;;24.80;63.00;;;;;;3593662;39;20406;-68
2021/06/13 12:57:45;;;;;;;6.57;2.50;;;25.60;60.90;;;;;;3583882;39;20024;-68
2021/06/13 13:00:12;;;;;;;4.10;2.50;;;;;;;;;;3596692;39;20289;-68
2021/06/13 13:02:38;;;;;;;7.70;2.65;;;25.70;59.90;;;;;;3595475;39;20032;-68
2021/06/13 13:05:13;;;;;;;6.35;2.72;;;27.30;58.70;;;;;;3597512;39;20042;-68
2021/06/13 13:07:41;;;;;;;;;;;26.80;55.90;;;;;;3600028;39;20057;-68
2021/06/13 13:10:24;;;;;;;7.15;2.42;;;27.00;56.20;;;;;;3594175;39;19955;-68
2021/06/13 13:12:57;;;;;;;9.27;3.50;;;27.00;53.40;;;;;;3590059;39;20039;-68
2021/06/13 13:15:25;;;;;;;6.28;2.70;;;26.60;53.80;;;;;;3596544;39;20028;-68
2021/06/13 13:17:53;;;;;;;7.40;3.20;;;25.50;56.00;;;;;;3595813;39;20031;-68
2021/06/13 13:20:31;;;;;;;8.25;3.05;;;25.20;57.00;;;;;;3595249;39;20388;-68
2021/06/13 13:23:07;;;;;;;9.25;3.13;;;25.20;56.00;;;;;;3593189;39;20032;-68
2021/06/13 13:25:35;;;;;;;9.57;3.00;;;27.30;56.00;;;;;;3597580;39;20499;-68